Buoy 13519

sailwx.info

Track history (hours):
 
Tides and Currents Weather Stations Pressure Air Temp Water Temp Dewpoint Dewpoint Depression Visibility Wind Speed Wind Dir Waves Ship Positions

Drifting buoy 13519

Last reported at 2015-Apr-28 05:00 UTC. Time now 2015-Apr-28 06:46 UTC.
Position N 16°54' W 032°20'.

Barometer 1016.6 mb
Water temperature 22.7 ° C

Date/timePositionNaut miles runAvg speedWind from/ knotsBaromVisibWave heightAir tempDewpointWater temp
2015-Apr-28 05:00N 16°54' W 032°20'0 0.1 1016.6 22.7
2015-Apr-28 04:00N 16°54' W 032°20'0 0.1 1016.9 22.7
2015-Apr-27 20:00N 16°54' W 032°20'1 0.1 1016.6 22.8
2015-Apr-27 12:00N 16°54' W 032°20'1 0.1 1018.9 22.7
2015-Apr-27 07:00N 16°55' W 032°20'0 0.0 1017.3 22.7
2015-Apr-27 06:00N 16°55' W 032°20'0 0.2 1016.9 22.7
2015-Apr-27 04:00N 16°55' W 032°19'1 0.1 1017.2 22.7
2015-Apr-26 23:00N 16°55' W 032°19'2 1.8 1019.0 22.7
2015-Apr-26 22:00N 16°55' W 032°18'1 0.1 1018.1 22.7
2015-Apr-26 07:00N 16°55' W 032°18'3 0.3 1017.3 22.6
2015-Apr-25 23:00N 16°55' W 032°16'0 0.1 1018.7 22.7
2015-Apr-25 19:00N 16°55' W 032°16'1 0.2 1017.6 22.7
2015-Apr-25 12:00N 16°55' W 032°14'0 0.0 1019.7 22.6
2015-Apr-25 11:00N 16°55' W 032°14'0 0.2 1019.7 22.6
2015-Apr-25 08:00N 16°56' W 032°14'1 0.1 1018.2 22.6
2015-Apr-24 18:00N 16°55' W 032°13'0 0.0 1016.9 22.7
2015-Apr-24 16:00N 16°55' W 032°13'1 1.0 1017.7 22.7
2015-Apr-24 15:00N 16°55' W 032°12'1 0.2 1018.5 22.7
2015-Apr-24 10:00N 16°54' W 032°12'1 0.1 1019.8 22.6
2015-Apr-24 00:00N 16°54' W 032°12'1 1.2 1019.2 22.6
2015-Apr-23 23:00N 16°54' W 032°10'1 0.2 1019.2 22.6
2015-Apr-23 16:00N 16°53' W 032°12'1 0.3 1018.0 22.8
2015-Apr-23 11:00N 16°52' W 032°11'0 0.0 1019.6 22.6
2015-Apr-23 07:00N 16°52' W 032°11'0 0.2 1017.9 22.6
2015-Apr-23 06:00N 16°52' W 032°11'0 0.0 1017.7 22.6
2015-Apr-23 05:00N 16°52' W 032°11'1 0.4 1017.8 22.6
2015-Apr-23 03:00N 16°52' W 032°11'1 0.1 1018.3 22.6
2015-Apr-22 08:00N 16°51' W 032°12'1 0.1 1017.6 22.6
2015-Apr-21 23:00N 16°52' W 032°13'2 1.7 1017.9 22.6
2015-Apr-21 22:00N 16°51' W 032°12'1 0.4 1017.8 22.6
2015-Apr-21 19:00N 16°51' W 032°13'0 0.1 1016.3 22.7
2015-Apr-21 16:00N 16°51' W 032°13'0 0.0 1016.5 22.7
2015-Apr-21 15:00N 16°51' W 032°13'1 0.1 1017.2 22.7
2015-Apr-21 08:00N 16°50' W 032°13'1 0.1 1016.9 22.5
2015-Apr-20 22:00N 16°51' W 032°14'0 0.0 1017.0 22.6
2015-Apr-20 17:00N 16°50' W 032°14'1 0.4 1015.8 22.7
2015-Apr-20 15:00N 16°51' W 032°14'0 0.0 1017.7 22.7
2015-Apr-20 14:00N 16°51' W 032°14'1 0.5 1018.2 22.7
2015-Apr-20 12:00N 16°51' W 032°15'1 1.4 1018.6 22.5
2015-Apr-20 11:00N 16°50' W 032°15'0 0.0 1018.7 22.5
2015-Apr-19 22:00N 16°50' W 032°15'1 0.3 1017.0 22.6
2015-Apr-19 18:00N 16°50' W 032°14'1 0.4 1015.7 22.6
2015-Apr-19 15:00N 16°50' W 032°15'0 0.0 1017.0 22.6
2015-Apr-19 14:00N 16°50' W 032°15'1 0.2 1017.7 22.6
2015-Apr-19 10:00N 16°50' W 032°16'0 0.1 1017.7 22.5
2015-Apr-19 08:00N 16°50' W 032°16'0 0.2 1016.7 22.5
2015-Apr-19 07:00N 16°50' W 032°16'1 0.3 1016.5 22.5
2015-Apr-19 04:00N 16°49' W 032°15'1 0.3 1017.5 22.5
2015-Apr-19 00:00N 16°50' W 032°15'1 0.1 1018.9 22.5
2015-Apr-18 12:00N 16°50' W 032°15'0 0.3 1019.0 22.5
2015-Apr-18 11:00N 16°50' W 032°15'1 0.2 1018.7 22.5
2015-Apr-18 07:00N 16°50' W 032°15'0 0.0 1017.1 22.5
2015-Apr-18 06:00N 16°50' W 032°15'0 0.0 1016.8 22.5
2015-Apr-18 05:00N 16°50' W 032°15'   1017.1 22.5
Track history (hours):
 
Tides and Currents Weather Stations Pressure Air Temp Water Temp Dewpoint Dewpoint Depression Visibility Wind Speed Wind Dir Waves Ship Positions

Drifting buoy 13519

Last reported at 2015-Apr-28 05:00 UTC. Time now 2015-Apr-28 06:46 UTC.
Position N 16°54' W 032°20'.

Barometer 1016.6 mb
Water temperature 22.7 ° C

Date/timePositionNaut miles runAvg speedWind from/ knotsBaromVisibWave heightAir tempDewpointWater temp
2015-Apr-28 05:00N 16°54' W 032°20'0 0.1 1016.6 22.7
2015-Apr-28 04:00N 16°54' W 032°20'0 0.1 1016.9 22.7
2015-Apr-27 20:00N 16°54' W 032°20'1 0.1 1016.6 22.8
2015-Apr-27 12:00N 16°54' W 032°20'1 0.1 1018.9 22.7
2015-Apr-27 07:00N 16°55' W 032°20'0 0.0 1017.3 22.7
2015-Apr-27 06:00N 16°55' W 032°20'0 0.2 1016.9 22.7
2015-Apr-27 04:00N 16°55' W 032°19'1 0.1 1017.2 22.7
2015-Apr-26 23:00N 16°55' W 032°19'2 1.8 1019.0 22.7
2015-Apr-26 22:00N 16°55' W 032°18'1 0.1 1018.1 22.7
2015-Apr-26 07:00N 16°55' W 032°18'3 0.3 1017.3 22.6
2015-Apr-25 23:00N 16°55' W 032°16'0 0.1 1018.7 22.7
2015-Apr-25 19:00N 16°55' W 032°16'1 0.2 1017.6 22.7
2015-Apr-25 12:00N 16°55' W 032°14'0 0.0 1019.7 22.6
2015-Apr-25 11:00N 16°55' W 032°14'0 0.2 1019.7 22.6
2015-Apr-25 08:00N 16°56' W 032°14'1 0.1 1018.2 22.6
2015-Apr-24 18:00N 16°55' W 032°13'0 0.0 1016.9 22.7
2015-Apr-24 16:00N 16°55' W 032°13'1 1.0 1017.7 22.7
2015-Apr-24 15:00N 16°55' W 032°12'1 0.2 1018.5 22.7
2015-Apr-24 10:00N 16°54' W 032°12'1 0.1 1019.8 22.6
2015-Apr-24 00:00N 16°54' W 032°12'1 1.2 1019.2 22.6
2015-Apr-23 23:00N 16°54' W 032°10'1 0.2 1019.2 22.6
2015-Apr-23 16:00N 16°53' W 032°12'1 0.3 1018.0 22.8
2015-Apr-23 11:00N 16°52' W 032°11'0 0.0 1019.6 22.6
2015-Apr-23 07:00N 16°52' W 032°11'0 0.2 1017.9 22.6
2015-Apr-23 06:00N 16°52' W 032°11'0 0.0 1017.7 22.6
2015-Apr-23 05:00N 16°52' W 032°11'1 0.4 1017.8 22.6
2015-Apr-23 03:00N 16°52' W 032°11'1 0.1 1018.3 22.6
2015-Apr-22 08:00N 16°51' W 032°12'1 0.1 1017.6 22.6
2015-Apr-21 23:00N 16°52' W 032°13'2 1.7 1017.9 22.6
2015-Apr-21 22:00N 16°51' W 032°12'1 0.4 1017.8 22.6
2015-Apr-21 19:00N 16°51' W 032°13'0 0.1 1016.3 22.7
2015-Apr-21 16:00N 16°51' W 032°13'0 0.0 1016.5 22.7
2015-Apr-21 15:00N 16°51' W 032°13'1 0.1 1017.2 22.7
2015-Apr-21 08:00N 16°50' W 032°13'1 0.1 1016.9 22.5
2015-Apr-20 22:00N 16°51' W 032°14'0 0.0 1017.0 22.6
2015-Apr-20 17:00N 16°50' W 032°14'1 0.4 1015.8 22.7
2015-Apr-20 15:00N 16°51' W 032°14'0 0.0 1017.7 22.7
2015-Apr-20 14:00N 16°51' W 032°14'1 0.5 1018.2 22.7
2015-Apr-20 12:00N 16°51' W 032°15'1 1.4 1018.6 22.5
2015-Apr-20 11:00N 16°50' W 032°15'0 0.0 1018.7 22.5
2015-Apr-19 22:00N 16°50' W 032°15'1 0.3 1017.0 22.6
2015-Apr-19 18:00N 16°50' W 032°14'1 0.4 1015.7 22.6
2015-Apr-19 15:00N 16°50' W 032°15'0 0.0 1017.0 22.6
2015-Apr-19 14:00N 16°50' W 032°15'1 0.2 1017.7 22.6
2015-Apr-19 10:00N 16°50' W 032°16'0 0.1 1017.7 22.5
2015-Apr-19 08:00N 16°50' W 032°16'0 0.2 1016.7 22.5
2015-Apr-19 07:00N 16°50' W 032°16'1 0.3 1016.5 22.5
2015-Apr-19 04:00N 16°49' W 032°15'1 0.3 1017.5 22.5
2015-Apr-19 00:00N 16°50' W 032°15'1 0.1 1018.9 22.5
2015-Apr-18 12:00N 16°50' W 032°15'0 0.3 1019.0 22.5
2015-Apr-18 11:00N 16°50' W 032°15'1 0.2 1018.7 22.5
2015-Apr-18 07:00N 16°50' W 032°15'0 0.0 1017.1 22.5
2015-Apr-18 06:00N 16°50' W 032°15'0 0.0 1016.8 22.5
2015-Apr-18 05:00N 16°50' W 032°15'   1017.1 22.5

Dump ship's entire track history